createdAt,value
2024-04-25T00:00:38.091Z,99153.66
2024-04-25T00:03:05.116Z,99160.59
2024-04-25T00:05:31.929Z,99153.47
2024-04-25T00:07:58.640Z,99151.91
2024-04-25T00:10:25.341Z,99157.88
2024-04-25T00:12:52.080Z,99158.88
2024-04-25T00:15:18.965Z,99156.34
2024-04-25T00:17:45.769Z,99163.09
2024-04-25T00:20:12.568Z,99165.84
2024-04-25T00:22:39.443Z,99163.00
2024-04-25T00:25:06.200Z,99169.19
2024-04-25T00:27:32.940Z,99171.03
2024-04-25T00:29:59.693Z,99173.81
2024-04-25T00:32:26.455Z,99173.97
2024-04-25T00:34:53.182Z,99170.22
2024-04-25T00:37:19.909Z,99176.00
2024-04-25T00:39:46.624Z,99181.75
2024-04-25T00:42:19.927Z,99188.38
2024-04-25T00:44:46.674Z,99182.72
2024-04-25T00:47:19.772Z,99184.28
2024-04-25T00:49:48.012Z,99186.22
2024-04-25T00:52:15.428Z,99189.03
2024-04-25T00:54:43.144Z,99187.84
2024-04-25T00:57:12.081Z,99193.69
2024-04-25T00:59:48.363Z,99193.53
2024-04-25T01:02:17.070Z,99198.47
2024-04-25T01:04:44.714Z,99197.81
2024-04-25T01:07:11.405Z,99198.63
2024-04-25T01:09:38.177Z,99203.56
2024-04-25T01:12:05.732Z,99197.84
2024-04-25T01:14:32.744Z,99205.16
2024-04-25T01:16:59.593Z,99205.88
2024-04-25T01:19:26.343Z,99209.56
2024-04-25T01:21:53.099Z,99209.38
2024-04-25T01:24:26.604Z,99212.13
2024-04-25T01:26:54.485Z,99218.28
2024-04-25T01:29:21.338Z,99226.81
2024-04-25T01:31:48.291Z,99225.88
2024-04-25T01:34:15.074Z,99226.16
2024-04-25T01:36:42.617Z,99228.16
2024-04-25T01:39:12.411Z,99231.47
2024-04-25T01:41:39.242Z,99225.53
2024-04-25T01:44:06.283Z,99232.44
2024-04-25T01:46:33.192Z,99222.97
2024-04-25T01:49:00.125Z,99224.75
2024-04-25T01:51:27.374Z,99228.53
2024-04-25T01:53:54.073Z,99212.78
2024-04-25T01:56:21.345Z,99218.00
2024-04-25T01:58:48.102Z,99218.38
2024-04-25T02:01:14.847Z,99219.38
2024-04-25T02:03:41.587Z,99211.63
2024-04-25T02:06:08.288Z,99216.03
2024-04-25T02:08:35.096Z,99210.84
2024-04-25T02:11:02.433Z,99216.66
2024-04-25T02:13:29.152Z,99212.63
2024-04-25T02:15:55.943Z,99225.28
2024-04-25T02:18:22.746Z,99218.56
2024-04-25T02:20:49.585Z,99221.59
2024-04-25T02:23:19.601Z,99216.59
2024-04-25T02:25:46.321Z,99215.31
2024-04-25T02:28:13.000Z,99223.97
2024-04-25T02:30:39.714Z,99216.25
2024-04-25T02:33:06.597Z,99225.59
2024-04-25T02:35:33.474Z,99221.34
2024-04-25T02:38:00.255Z,99226.25
2024-04-25T02:40:26.961Z,99221.34
2024-04-25T02:42:53.642Z,99220.78
2024-04-25T02:45:20.386Z,99233.66
2024-04-25T02:47:47.235Z,99239.75
2024-04-25T02:50:14.259Z,99239.03
2024-04-25T02:52:41.068Z,99237.78
2024-04-25T02:55:07.800Z,99250.66
2024-04-25T02:57:34.478Z,99250.13
2024-04-25T03:00:01.199Z,99246.88
2024-04-25T03:02:29.754Z,99246.91
2024-04-25T03:04:56.631Z,99247.31
2024-04-25T03:07:23.328Z,99256.59
2024-04-25T03:09:50.067Z,99258.09
2024-04-25T03:12:16.817Z,99257.25
2024-04-25T03:14:43.540Z,99253.78
2024-04-25T03:17:12.827Z,99255.78
2024-04-25T03:19:39.556Z,99256.38
2024-04-25T03:22:06.257Z,99257.03
2024-04-25T03:24:32.928Z,99248.16
2024-04-25T03:26:59.749Z,99254.28
2024-04-25T03:29:26.687Z,99256.50
2024-04-25T03:31:53.628Z,99253.88
2024-04-25T03:34:20.410Z,99259.16
2024-04-25T03:36:49.870Z,99268.47
2024-04-25T03:39:16.907Z,99261.25
2024-04-25T03:41:44.430Z,99265.72
2024-04-25T03:44:11.358Z,99266.84
2024-04-25T03:46:38.130Z,99266.94
2024-04-25T03:49:05.091Z,99269.81
2024-04-25T03:51:31.894Z,99268.84
2024-04-25T03:53:58.674Z,99273.31
2024-04-25T03:56:25.392Z,99274.22
2024-04-25T03:58:52.118Z,99274.41
2024-04-25T04:01:19.007Z,99272.13
2024-04-25T04:03:45.771Z,99271.91
2024-04-25T04:06:12.458Z,99277.19
2024-04-25T04:08:39.285Z,99276.16
2024-04-25T04:11:06.086Z,99277.56
2024-04-25T04:13:32.849Z,99277.53
2024-04-25T04:15:59.610Z,99269.53
2024-04-25T04:18:26.420Z,99278.47
2024-04-25T04:20:53.184Z,99269.47
2024-04-25T04:23:20.066Z,99279.91
2024-04-25T04:25:46.874Z,99283.75
2024-04-25T04:28:15.520Z,99271.78
2024-04-25T04:30:42.583Z,99274.31
2024-04-25T04:33:09.379Z,99282.16
2024-04-25T04:35:36.338Z,99287.25
2024-04-25T04:38:03.214Z,99287.38
2024-04-25T04:40:29.890Z,99282.63
2024-04-25T04:42:56.607Z,99281.97
2024-04-25T04:45:23.572Z,99280.22
2024-04-25T04:47:50.397Z,99285.66
2024-04-25T04:50:17.197Z,99290.06
2024-04-25T04:52:43.944Z,99290.88
2024-04-25T04:55:10.749Z,99290.00
2024-04-25T04:57:37.560Z,99285.56
2024-04-25T05:00:04.544Z,99286.34
2024-04-25T05:02:31.339Z,99282.81
2024-04-25T05:04:58.065Z,99281.00
2024-04-25T05:07:27.788Z,99284.50
2024-04-25T05:09:54.505Z,99280.09
2024-04-25T05:12:21.183Z,99286.06
2024-04-25T05:14:47.936Z,99288.50
2024-04-25T05:17:14.778Z,99293.78
2024-04-25T05:19:41.493Z,99302.31
2024-04-25T05:22:11.282Z,99294.38
2024-04-25T05:24:37.985Z,99294.31
2024-04-25T05:27:04.712Z,99299.50
2024-04-25T05:29:34.103Z,99308.09
2024-04-25T05:32:01.370Z,99308.81
2024-04-25T05:34:28.098Z,99319.09
2024-04-25T05:36:54.857Z,99320.72
2024-04-25T05:39:21.544Z,99332.06
2024-04-25T05:41:48.391Z,99330.22
2024-04-25T05:44:15.272Z,99334.50
2024-04-25T05:46:41.983Z,99334.41
2024-04-25T05:49:08.704Z,99338.66
2024-04-25T05:51:35.442Z,99343.75
2024-04-25T05:54:02.135Z,99329.81
2024-04-25T05:56:28.858Z,99337.59
2024-04-25T05:58:55.608Z,99333.81
2024-04-25T06:01:22.286Z,99338.03
2024-04-25T06:03:49.122Z,99332.66
2024-04-25T06:06:15.940Z,99333.34
2024-04-25T06:08:42.752Z,99329.72
2024-04-25T06:11:12.581Z,99328.91
2024-04-25T06:13:39.544Z,99327.66
2024-04-25T06:16:12.524Z,99332.78
2024-04-25T06:18:39.410Z,99325.53
2024-04-25T06:21:06.134Z,99330.63
2024-04-25T06:23:33.688Z,99330.44
2024-04-25T06:26:02.271Z,99336.50
2024-04-25T06:28:29.032Z,99340.88
2024-04-25T06:30:58.552Z,99353.66
2024-04-25T06:33:28.413Z,99355.25
2024-04-25T06:35:55.319Z,99354.81
2024-04-25T06:38:22.115Z,99357.78
2024-04-25T06:40:51.620Z,99370.53
2024-04-25T06:43:18.407Z,99367.19
2024-04-25T06:45:45.242Z,99366.75
2024-04-25T06:48:12.022Z,99371.75
2024-04-25T06:50:39.696Z,99368.94
2024-04-25T06:53:06.438Z,99376.69
2024-04-25T06:55:33.162Z,99379.94
2024-04-25T06:57:59.885Z,99388.31
2024-04-25T07:00:27.165Z,99386.97
2024-04-25T07:02:53.919Z,99382.06
2024-04-25T07:05:20.770Z,99389.16
2024-04-25T07:07:47.488Z,99386.66
2024-04-25T07:10:14.347Z,99384.91
2024-04-25T07:12:41.096Z,99388.31
2024-04-25T07:15:08.408Z,99378.78
2024-04-25T07:17:35.408Z,99384.41
2024-04-25T07:20:03.580Z,99387.06
2024-04-25T07:22:30.288Z,99389.59
2024-04-25T07:24:57.871Z,99394.88
2024-04-25T07:27:24.601Z,99387.63
2024-04-25T07:29:51.415Z,99386.09
2024-04-25T07:32:18.234Z,99386.72
2024-04-25T07:34:45.805Z,99394.09
2024-04-25T07:37:12.663Z,99392.00
2024-04-25T07:39:39.643Z,99396.25
2024-04-25T07:42:06.360Z,99389.41
2024-04-25T07:44:33.082Z,99390.22
2024-04-25T07:46:59.815Z,99393.69
2024-04-25T07:49:26.594Z,99387.34
2024-04-25T07:51:53.437Z,99395.34
2024-04-25T07:54:20.182Z,99398.06
2024-04-25T07:56:47.148Z,99402.84
2024-04-25T07:59:13.921Z,99399.34
2024-04-25T08:01:40.743Z,99400.28
2024-04-25T08:04:07.463Z,99400.94
2024-04-25T08:06:34.180Z,99394.50
2024-04-25T08:09:01.121Z,99412.34
2024-04-25T08:11:28.154Z,99404.63
2024-04-25T08:13:56.262Z,99400.53
2024-04-25T08:16:24.258Z,99408.00
2024-04-25T08:18:51.027Z,99404.34
2024-04-25T08:21:17.718Z,99404.63
2024-04-25T08:23:44.506Z,99410.06
2024-04-25T08:26:14.099Z,99415.41
2024-04-25T08:28:41.930Z,99415.84
2024-04-25T08:31:08.724Z,99414.75
2024-04-25T08:33:35.600Z,99416.84
2024-04-25T08:36:02.532Z,99418.31
2024-04-25T08:38:29.358Z,99419.00
2024-04-25T08:40:56.893Z,99424.78
2024-04-25T08:43:25.266Z,99416.91
2024-04-25T08:45:52.801Z,99417.22
2024-04-25T08:48:20.569Z,99416.69
2024-04-25T08:50:49.636Z,99411.63
2024-04-25T08:53:17.785Z,99413.56
2024-04-25T08:55:45.380Z,99421.66
2024-04-25T08:58:12.322Z,99416.81
2024-04-25T09:00:39.339Z,99412.09
2024-04-25T09:03:08.812Z,99411.50
2024-04-25T09:05:36.120Z,99415.94
2024-04-25T09:08:03.235Z,99413.41
2024-04-25T09:10:43.118Z,99415.84
2024-04-25T09:13:10.766Z,99413.41
2024-04-25T09:15:37.511Z,99411.84
2024-04-25T09:18:04.652Z,99415.59
2024-04-25T09:20:32.386Z,99413.53
2024-04-25T09:23:00.881Z,99418.00
2024-04-25T09:25:29.084Z,99417.00
2024-04-25T09:27:55.953Z,99408.28
2024-04-25T09:30:22.721Z,99406.97
2024-04-25T09:32:49.527Z,99416.00
2024-04-25T09:35:16.328Z,99414.38
2024-04-25T09:37:43.023Z,99403.66
2024-04-25T09:40:10.446Z,99412.84
2024-04-25T09:42:37.368Z,99403.75
2024-04-25T09:45:04.902Z,99412.34
2024-04-25T09:47:38.318Z,99400.09
2024-04-25T09:50:10.403Z,99397.09
2024-04-25T09:52:42.678Z,99402.19
2024-04-25T09:55:15.673Z,99399.06
2024-04-25T09:57:47.755Z,99394.97
2024-04-25T10:00:16.018Z,99395.09
2024-04-25T10:02:44.106Z,99397.53
2024-04-25T10:05:11.320Z,99396.06
2024-04-25T10:07:39.074Z,99387.63
2024-04-25T10:10:06.512Z,99389.22
2024-04-25T10:12:33.338Z,99396.91
2024-04-25T10:15:02.196Z,99385.63
2024-04-25T10:17:30.846Z,99394.06
2024-04-25T10:19:58.647Z,99390.53
2024-04-25T10:22:27.570Z,99390.75
2024-04-25T10:24:56.852Z,99381.16
2024-04-25T10:27:23.553Z,99381.69
2024-04-25T10:29:53.655Z,99384.00
2024-04-25T10:32:20.969Z,99375.19
2024-04-25T10:34:47.807Z,99370.56
2024-04-25T10:37:14.745Z,99376.38
2024-04-25T10:39:44.541Z,99377.81
2024-04-25T10:42:20.765Z,99375.72
2024-04-25T10:44:47.952Z,99373.53
2024-04-25T10:47:15.528Z,99373.03
2024-04-25T10:49:42.279Z,99370.88
2024-04-25T10:52:09.178Z,99375.56
2024-04-25T10:54:36.136Z,99370.38
2024-04-25T10:57:02.823Z,99364.88
2024-04-25T10:59:33.166Z,99377.19
2024-04-25T11:02:04.755Z,99378.63
2024-04-25T11:04:44.223Z,99375.41
2024-04-25T11:07:12.351Z,99379.63
2024-04-25T11:09:40.285Z,99377.63
2024-04-25T11:12:09.990Z,99373.78
2024-04-25T11:14:38.675Z,99372.28
2024-04-25T11:17:05.380Z,99374.56
2024-04-25T11:19:35.734Z,99367.94
2024-04-25T11:22:07.176Z,99366.72
2024-04-25T11:24:34.257Z,99360.38
2024-04-25T11:27:01.434Z,99361.34
2024-04-25T11:29:28.172Z,99359.94
2024-04-25T11:31:54.884Z,99362.03
2024-04-25T11:34:23.604Z,99369.34
2024-04-25T11:37:05.450Z,99363.19
2024-04-25T11:39:36.043Z,99361.16
2024-04-25T11:42:08.739Z,99358.50
2024-04-25T11:44:35.630Z,99357.53
2024-04-25T11:47:03.327Z,99355.41
2024-04-25T11:49:30.893Z,99353.28
2024-04-25T11:51:57.603Z,99350.81
2024-04-25T11:54:24.315Z,99346.19
2024-04-25T11:56:51.209Z,99351.75
2024-04-25T11:59:17.980Z,99357.50
2024-04-25T12:01:44.755Z,99354.06
2024-04-25T12:04:11.713Z,99350.13
2024-04-25T12:06:38.727Z,99355.88
2024-04-25T12:09:05.479Z,99355.47
2024-04-25T12:11:32.182Z,99354.72
2024-04-25T12:13:59.002Z,99355.19
2024-04-25T12:16:25.746Z,99352.63
2024-04-25T12:18:52.512Z,99357.88
2024-04-25T12:21:19.226Z,99349.06
2024-04-25T12:23:45.968Z,99355.22
2024-04-25T12:26:12.650Z,99350.75
2024-04-25T12:28:39.423Z,99345.31
2024-04-25T12:31:06.248Z,99350.97
2024-04-25T12:33:33.155Z,99348.88
2024-04-25T12:35:59.983Z,99344.25
2024-04-25T12:38:26.750Z,99341.63
2024-04-25T12:40:53.480Z,99339.88
2024-04-25T12:43:20.191Z,99346.25
2024-04-25T12:45:52.621Z,99343.38
2024-04-25T12:48:19.473Z,99345.81
2024-04-25T12:50:46.367Z,99343.66
2024-04-25T12:53:13.114Z,99347.53
2024-04-25T12:55:39.925Z,99337.34
2024-04-25T12:58:07.024Z,99338.03
2024-04-25T13:00:33.896Z,99344.81
2024-04-25T13:03:00.742Z,99344.53
2024-04-25T13:05:27.626Z,99342.03
2024-04-25T13:07:54.328Z,99342.09
2024-04-25T13:10:21.271Z,99338.69
2024-04-25T13:12:47.975Z,99341.03
2024-04-25T13:15:14.698Z,99343.53
2024-04-25T13:17:41.561Z,99343.38
2024-04-25T13:20:08.728Z,99335.69
2024-04-25T13:22:35.632Z,99336.78
2024-04-25T13:25:03.129Z,99337.13
2024-04-25T13:27:29.854Z,99341.97
2024-04-25T13:29:56.626Z,99340.03
2024-04-25T13:32:23.427Z,99342.31
2024-04-25T13:34:50.217Z,99344.13
2024-04-25T13:37:16.933Z,99348.06
2024-04-25T13:39:43.808Z,99346.13
2024-04-25T13:42:10.479Z,99343.75
2024-04-25T13:44:37.231Z,99351.09
2024-04-25T13:47:04.002Z,99345.63
2024-04-25T13:49:30.737Z,99339.47
2024-04-25T13:51:57.461Z,99347.47
2024-04-25T13:54:24.265Z,99352.84
2024-04-25T13:56:50.998Z,99349.25
2024-04-25T13:59:17.741Z,99340.28
2024-04-25T14:01:44.584Z,99358.38
2024-04-25T14:04:11.412Z,99354.25
2024-04-25T14:06:38.170Z,99348.53
2024-04-25T14:09:04.900Z,99350.16
2024-04-25T14:11:31.673Z,99360.38
2024-04-25T14:13:58.361Z,99354.75
2024-04-25T14:16:25.202Z,99365.44
2024-04-25T14:18:54.502Z,99359.44
2024-04-25T14:21:22.836Z,99357.16
2024-04-25T14:23:49.632Z,99354.47
2024-04-25T14:26:16.369Z,99348.34
2024-04-25T14:28:43.360Z,99351.72
2024-04-25T14:31:13.418Z,99351.84
2024-04-25T14:33:41.211Z,99353.94
2024-04-25T14:36:08.375Z,99353.78
2024-04-25T14:38:35.374Z,99348.22
2024-04-25T14:41:02.160Z,99351.75
2024-04-25T14:43:29.120Z,99351.97
2024-04-25T14:45:55.896Z,99355.03
2024-04-25T14:48:22.725Z,99357.72
2024-04-25T14:50:49.489Z,99360.34
2024-04-25T14:53:16.299Z,99361.66
2024-04-25T14:55:43.030Z,99362.56
2024-04-25T14:58:09.871Z,99364.66
2024-04-25T15:00:36.564Z,99362.00
2024-04-25T15:03:03.308Z,99370.59
2024-04-25T15:05:30.027Z,99368.72
2024-04-25T15:07:56.753Z,99363.81
2024-04-25T15:10:23.480Z,99362.13
2024-04-25T15:12:50.211Z,99362.84
2024-04-25T15:15:21.276Z,99361.38
2024-04-25T15:17:48.397Z,99362.84
2024-04-25T15:20:25.657Z,99363.34
2024-04-25T15:22:52.793Z,99362.53
2024-04-25T15:25:20.148Z,99363.72
2024-04-25T15:27:46.863Z,99367.75
2024-04-25T15:30:13.583Z,99361.00
2024-04-25T15:32:40.369Z,99361.94
2024-04-25T15:35:09.817Z,99352.00
2024-04-25T15:37:36.840Z,99359.72
2024-04-25T15:40:03.803Z,99368.28
2024-04-25T15:42:30.518Z,99357.50
2024-04-25T15:44:57.332Z,99362.44
2024-04-25T15:47:25.827Z,99359.53
2024-04-25T15:49:52.703Z,99355.19
2024-04-25T15:52:19.383Z,99362.25
2024-04-25T15:54:46.131Z,99363.06
2024-04-25T15:57:13.564Z,99364.38
2024-04-25T15:59:40.410Z,99365.66
2024-04-25T16:02:07.133Z,99360.59
2024-04-25T16:04:33.857Z,99361.00
2024-04-25T16:07:00.626Z,99356.44
2024-04-25T16:09:27.349Z,99361.81
2024-04-25T16:11:54.232Z,99353.22
2024-04-25T16:14:21.035Z,99365.22
2024-04-25T16:16:47.737Z,99354.41
2024-04-25T16:19:14.432Z,99364.38
2024-04-25T16:21:41.386Z,99357.00
2024-04-25T16:24:08.280Z,99360.06
2024-04-25T16:26:34.989Z,99358.13
2024-04-25T16:29:01.766Z,99359.47
2024-04-25T16:31:28.458Z,99365.81
2024-04-25T16:33:55.212Z,99365.53
2024-04-25T16:36:22.033Z,99364.88
2024-04-25T16:38:48.802Z,99363.06
2024-04-25T16:41:19.860Z,99366.28
2024-04-25T16:43:46.846Z,99365.34
2024-04-25T16:46:13.520Z,99366.44
2024-04-25T16:48:40.880Z,99360.44
2024-04-25T16:51:08.140Z,99366.97
2024-04-25T16:53:35.524Z,99366.34
2024-04-25T16:56:02.231Z,99362.38
2024-04-25T16:58:28.985Z,99365.69
2024-04-25T17:00:55.678Z,99370.75
2024-04-25T17:03:22.533Z,99375.34
2024-04-25T17:05:49.371Z,99375.22
2024-04-25T17:08:16.228Z,99376.59
2024-04-25T17:10:43.080Z,99384.38
2024-04-25T17:13:09.770Z,99383.25
2024-04-25T17:15:36.469Z,99380.31
2024-04-25T17:18:03.301Z,99385.47
2024-04-25T17:20:30.360Z,99395.72
2024-04-25T17:22:57.075Z,99395.84
2024-04-25T17:25:23.799Z,99388.25
2024-04-25T17:27:50.484Z,99388.06
2024-04-25T17:30:17.210Z,99403.13
2024-04-25T17:32:44.004Z,99405.97
2024-04-25T17:35:10.777Z,99405.50
2024-04-25T17:37:37.467Z,99413.25
2024-04-25T17:40:04.389Z,99409.56
2024-04-25T17:42:31.145Z,99412.88
2024-04-25T17:44:57.898Z,99419.06
2024-04-25T17:47:25.618Z,99418.47
2024-04-25T17:49:53.324Z,99415.88
2024-04-25T17:52:20.069Z,99426.84
2024-04-25T17:54:46.834Z,99425.00
2024-04-25T17:57:13.540Z,99423.63
2024-04-25T17:59:40.256Z,99422.78
2024-04-25T18:02:07.045Z,99430.72
2024-04-25T18:04:33.792Z,99431.19
2024-04-25T18:07:00.616Z,99434.63
2024-04-25T18:09:27.403Z,99438.03
2024-04-25T18:11:54.150Z,99446.00
2024-04-25T18:14:20.894Z,99438.50
2024-04-25T18:16:48.117Z,99442.84
2024-04-25T18:19:14.945Z,99455.72
2024-04-25T18:21:41.791Z,99457.38
2024-04-25T18:24:08.784Z,99467.50
2024-04-25T18:26:35.559Z,99462.63
2024-04-25T18:29:02.268Z,99468.03
2024-04-25T18:31:29.135Z,99477.41
2024-04-25T18:33:55.948Z,99473.91
2024-04-25T18:36:22.687Z,99478.66
2024-04-25T18:38:49.418Z,99485.25
2024-04-25T18:41:16.979Z,99484.09
2024-04-25T18:43:43.681Z,99490.78
2024-04-25T18:46:10.427Z,99493.00
2024-04-25T18:48:38.517Z,99499.25
2024-04-25T18:51:05.944Z,99502.22
2024-04-25T18:53:32.642Z,99509.72
2024-04-25T18:55:59.394Z,99512.84
2024-04-25T18:58:26.077Z,99514.50
2024-04-25T19:00:52.785Z,99522.69
2024-04-25T19:03:19.621Z,99526.44
2024-04-25T19:05:46.725Z,99530.53
2024-04-25T19:08:13.457Z,99530.03
2024-04-25T19:10:40.141Z,99528.59
2024-04-25T19:13:06.869Z,99532.69
2024-04-25T19:15:33.586Z,99533.94
2024-04-25T19:18:00.480Z,99535.38
2024-04-25T19:20:27.307Z,99538.50
2024-04-25T19:22:54.017Z,99534.78
2024-04-25T19:25:20.910Z,99533.44
2024-04-25T19:27:47.701Z,99537.56
2024-04-25T19:30:14.532Z,99541.47
2024-04-25T19:32:41.396Z,99543.19
2024-04-25T19:35:08.270Z,99534.66
2024-04-25T19:37:35.064Z,99540.63
2024-04-25T19:40:04.315Z,99542.53
2024-04-25T19:42:31.025Z,99550.16
2024-04-25T19:44:57.711Z,99547.66
2024-04-25T19:47:24.578Z,99548.44
2024-04-25T19:49:51.616Z,99550.63
2024-04-25T19:52:18.871Z,99548.91
2024-04-25T19:54:45.569Z,99548.91
2024-04-25T19:57:12.287Z,99548.78
2024-04-25T19:59:39.026Z,99551.47
2024-04-25T20:02:05.923Z,99552.84
2024-04-25T20:04:32.655Z,99553.59
2024-04-25T20:06:59.359Z,99553.28
2024-04-25T20:09:26.174Z,99561.03
2024-04-25T20:11:52.944Z,99569.28
2024-04-25T20:14:19.701Z,99566.41
2024-04-25T20:16:46.605Z,99560.56
2024-04-25T20:19:13.335Z,99569.59
2024-04-25T20:21:40.470Z,99564.78
2024-04-25T20:24:07.458Z,99568.06
2024-04-25T20:26:34.427Z,99570.25
2024-04-25T20:29:01.159Z,99567.72
2024-04-25T20:31:28.026Z,99574.19
2024-04-25T20:33:55.047Z,99576.72
2024-04-25T20:36:21.902Z,99576.59
2024-04-25T20:38:48.721Z,99577.59
2024-04-25T20:41:15.412Z,99578.13
2024-04-25T20:43:42.241Z,99576.88
2024-04-25T20:46:09.352Z,99578.91
2024-04-25T20:48:36.196Z,99585.13
2024-04-25T20:51:03.025Z,99590.06
2024-04-25T20:53:29.807Z,99599.09
2024-04-25T20:55:56.503Z,99591.63
2024-04-25T20:58:25.331Z,99593.31
2024-04-25T21:00:53.472Z,99592.94
2024-04-25T21:03:20.245Z,99596.69
2024-04-25T21:05:47.009Z,99601.84
2024-04-25T21:08:13.706Z,99604.88
2024-04-25T21:10:40.435Z,99605.53
2024-04-25T21:13:07.146Z,99602.03
2024-04-25T21:15:33.870Z,99605.13
2024-04-25T21:18:00.705Z,99593.19
2024-04-25T21:20:27.468Z,99599.28
2024-04-25T21:22:54.177Z,99592.97
2024-04-25T21:25:20.868Z,99593.53
2024-04-25T21:27:47.576Z,99594.75
2024-04-25T21:30:14.549Z,99597.31
2024-04-25T21:32:44.989Z,99598.09
2024-04-25T21:35:12.357Z,99605.84
2024-04-25T21:37:39.172Z,99602.44
2024-04-25T21:40:06.090Z,99606.56
2024-04-25T21:42:32.943Z,99607.56
2024-04-25T21:44:59.715Z,99611.75
2024-04-25T21:47:26.591Z,99605.06
2024-04-25T21:49:53.341Z,99605.56
2024-04-25T21:52:20.232Z,99610.63
2024-04-25T21:54:46.944Z,99605.97
2024-04-25T21:57:13.879Z,99614.50
2024-04-25T21:59:40.684Z,99611.81
2024-04-25T22:02:07.443Z,99610.19
2024-04-25T22:04:34.179Z,99611.44
2024-04-25T22:07:00.873Z,99608.09
2024-04-25T22:09:27.627Z,99605.75
2024-04-25T22:11:54.487Z,99604.47
2024-04-25T22:14:21.298Z,99605.38
2024-04-25T22:16:48.554Z,99606.63
2024-04-25T22:19:15.681Z,99602.13
2024-04-25T22:21:48.203Z,99607.38
2024-04-25T22:24:14.943Z,99604.56
2024-04-25T22:26:41.751Z,99601.97
2024-04-25T22:29:08.532Z,99603.34
2024-04-25T22:31:35.282Z,99612.00
2024-04-25T22:34:02.204Z,99605.03
2024-04-25T22:36:29.130Z,99604.88
2024-04-25T22:38:56.036Z,99608.31
2024-04-25T22:41:22.911Z,99597.09
2024-04-25T22:43:49.655Z,99606.31
2024-04-25T22:46:16.468Z,99609.13
2024-04-25T22:48:43.434Z,99607.44
2024-04-25T22:51:10.259Z,99604.00
2024-04-25T22:53:37.139Z,99609.38
2024-04-25T22:56:04.052Z,99615.06
2024-04-25T22:58:30.915Z,99611.38
2024-04-25T23:00:57.747Z,99614.44
2024-04-25T23:03:27.789Z,99611.88
2024-04-25T23:05:56.075Z,99608.47
2024-04-25T23:08:22.978Z,99612.19
2024-04-25T23:10:49.756Z,99614.19
2024-04-25T23:13:16.605Z,99621.41
2024-04-25T23:15:43.343Z,99619.41
2024-04-25T23:18:10.141Z,99618.84
2024-04-25T23:20:36.969Z,99617.81
2024-04-25T23:23:06.527Z,99621.19
2024-04-25T23:25:33.268Z,99616.06
2024-04-25T23:28:00.039Z,99620.09
2024-04-25T23:30:26.826Z,99617.16
2024-04-25T23:32:53.790Z,99619.31
2024-04-25T23:35:20.709Z,99623.25
2024-04-25T23:37:47.564Z,99624.69
2024-04-25T23:40:14.427Z,99616.88
2024-04-25T23:42:41.212Z,99617.13
2024-04-25T23:45:08.441Z,99619.84
2024-04-25T23:47:35.395Z,99619.00
2024-04-25T23:50:02.273Z,99623.09
2024-04-25T23:52:29.031Z,99619.50
2024-04-25T23:54:55.948Z,99617.06
2024-04-25T23:57:22.733Z,99617.84
2024-04-25T23:59:49.556Z,99621.09
